sensor_id;sensor_type;location;lat;lon;timestamp;P1;durP1;ratioP1;P2;durP2;ratioP2
51614;SDS011;37695;52.960;6.188;2022-09-09T00:01:36;5.75;;;3.58;;
51614;SDS011;37695;52.960;6.188;2022-09-09T00:04:28;4.85;;;3.58;;
51614;SDS011;37695;52.960;6.188;2022-09-09T00:07:06;4.95;;;3.40;;
51614;SDS011;37695;52.960;6.188;2022-09-09T00:15:20;6.47;;;3.55;;
51614;SDS011;37695;52.960;6.188;2022-09-09T00:20:46;5.53;;;3.60;;
51614;SDS011;37695;52.960;6.188;2022-09-09T00:23:25;5.18;;;3.13;;
51614;SDS011;37695;52.960;6.188;2022-09-09T00:26:04;6.13;;;3.50;;
51614;SDS011;37695;52.960;6.188;2022-09-09T00:28:57;5.25;;;3.40;;
51614;SDS011;37695;52.960;6.188;2022-09-09T00:31:33;4.47;;;3.13;;
51614;SDS011;37695;52.960;6.188;2022-09-09T00:34:03;6.72;;;3.53;;
51614;SDS011;37695;52.960;6.188;2022-09-09T00:36:38;5.03;;;3.55;;
51614;SDS011;37695;52.960;6.188;2022-09-09T00:39:04;5.13;;;3.67;;
51614;SDS011;37695;52.960;6.188;2022-09-09T00:50:16;8.13;;;3.88;;
51614;SDS011;37695;52.960;6.188;2022-09-09T00:55:45;5.65;;;3.78;;
51614;SDS011;37695;52.960;6.188;2022-09-09T00:58:17;6.28;;;3.83;;
51614;SDS011;37695;52.960;6.188;2022-09-09T01:00:44;6.63;;;4.10;;
51614;SDS011;37695;52.960;6.188;2022-09-09T01:06:11;9.95;;;4.72;;
51614;SDS011;37695;52.960;6.188;2022-09-09T01:11:15;6.53;;;3.85;;
51614;SDS011;37695;52.960;6.188;2022-09-09T01:13:47;5.47;;;4.25;;
51614;SDS011;37695;52.960;6.188;2022-09-09T01:16:24;7.00;;;4.10;;
51614;SDS011;37695;52.960;6.188;2022-09-09T01:18:51;6.63;;;4.30;;
51614;SDS011;37695;52.960;6.188;2022-09-09T01:26:26;5.78;;;3.92;;
51614;SDS011;37695;52.960;6.188;2022-09-09T01:28:57;6.03;;;4.38;;
51614;SDS011;37695;52.960;6.188;2022-09-09T01:31:28;5.45;;;4.07;;
51614;SDS011;37695;52.960;6.188;2022-09-09T01:38:55;5.82;;;4.07;;
51614;SDS011;37695;52.960;6.188;2022-09-09T01:41:21;6.57;;;4.70;;
51614;SDS011;37695;52.960;6.188;2022-09-09T01:43:46;7.53;;;4.90;;
51614;SDS011;37695;52.960;6.188;2022-09-09T01:46:12;6.40;;;5.28;;
51614;SDS011;37695;52.960;6.188;2022-09-09T01:48:38;6.63;;;4.60;;
51614;SDS011;37695;52.960;6.188;2022-09-09T01:51:07;6.10;;;4.75;;
51614;SDS011;37695;52.960;6.188;2022-09-09T01:53:34;10.68;;;4.63;;
51614;SDS011;37695;52.960;6.188;2022-09-09T02:01:15;6.35;;;4.35;;
51614;SDS011;37695;52.960;6.188;2022-09-09T02:03:53;6.13;;;4.50;;
51614;SDS011;37695;52.960;6.188;2022-09-09T02:06:26;5.78;;;4.35;;
51614;SDS011;37695;52.960;6.188;2022-09-09T02:08:59;8.07;;;4.47;;
51614;SDS011;37695;52.960;6.188;2022-09-09T02:11:29;7.68;;;4.20;;
51614;SDS011;37695;52.960;6.188;2022-09-09T02:14:17;7.38;;;4.63;;
51614;SDS011;37695;52.960;6.188;2022-09-09T02:19:32;5.97;;;4.20;;
51614;SDS011;37695;52.960;6.188;2022-09-09T02:22:15;6.38;;;4.70;;
51614;SDS011;37695;52.960;6.188;2022-09-09T02:24:44;5.75;;;4.30;;
51614;SDS011;37695;52.960;6.188;2022-09-09T02:27:11;7.82;;;4.43;;
51614;SDS011;37695;52.960;6.188;2022-09-09T02:29:39;7.47;;;4.50;;
51614;SDS011;37695;52.960;6.188;2022-09-09T02:32:07;5.40;;;4.22;;
51614;SDS011;37695;52.960;6.188;2022-09-09T02:34:39;6.25;;;4.45;;
51614;SDS011;37695;52.960;6.188;2022-09-09T02:37:10;5.40;;;4.57;;
51614;SDS011;37695;52.960;6.188;2022-09-09T02:39:37;7.50;;;4.50;;
51614;SDS011;37695;52.960;6.188;2022-09-09T02:42:03;6.93;;;4.78;;
51614;SDS011;37695;52.960;6.188;2022-09-09T02:44:29;6.18;;;4.68;;
51614;SDS011;37695;52.960;6.188;2022-09-09T02:47:06;6.07;;;4.47;;
51614;SDS011;37695;52.960;6.188;2022-09-09T02:58:09;7.95;;;4.80;;
51614;SDS011;37695;52.960;6.188;2022-09-09T03:00:38;6.43;;;3.92;;
51614;SDS011;37695;52.960;6.188;2022-09-09T03:03:05;6.05;;;4.20;;
51614;SDS011;37695;52.960;6.188;2022-09-09T03:05:31;6.32;;;4.53;;
51614;SDS011;37695;52.960;6.188;2022-09-09T03:07:57;7.85;;;4.00;;
51614;SDS011;37695;52.960;6.188;2022-09-09T03:10:23;5.85;;;4.30;;
51614;SDS011;37695;52.960;6.188;2022-09-09T03:12:49;8.23;;;4.57;;
51614;SDS011;37695;52.960;6.188;2022-09-09T03:15:15;8.68;;;4.78;;
51614;SDS011;37695;52.960;6.188;2022-09-09T03:17:41;5.65;;;3.75;;
51614;SDS011;37695;52.960;6.188;2022-09-09T03:20:07;5.82;;;4.10;;
51614;SDS011;37695;52.960;6.188;2022-09-09T03:22:33;8.73;;;4.53;;
51614;SDS011;37695;52.960;6.188;2022-09-09T03:24:59;5.60;;;3.90;;
51614;SDS011;37695;52.960;6.188;2022-09-09T03:27:25;5.13;;;3.78;;
51614;SDS011;37695;52.960;6.188;2022-09-09T03:29:50;5.53;;;3.92;;
51614;SDS011;37695;52.960;6.188;2022-09-09T03:32:17;5.68;;;3.50;;
51614;SDS011;37695;52.960;6.188;2022-09-09T03:34:43;6.55;;;3.83;;
51614;SDS011;37695;52.960;6.188;2022-09-09T03:37:09;6.10;;;4.00;;
51614;SDS011;37695;52.960;6.188;2022-09-09T03:39:35;6.90;;;3.90;;
51614;SDS011;37695;52.960;6.188;2022-09-09T03:42:00;5.47;;;3.80;;
51614;SDS011;37695;52.960;6.188;2022-09-09T03:44:29;6.20;;;3.85;;
51614;SDS011;37695;52.960;6.188;2022-09-09T03:46:55;7.05;;;3.78;;
51614;SDS011;37695;52.960;6.188;2022-09-09T03:49:21;7.15;;;4.20;;
51614;SDS011;37695;52.960;6.188;2022-09-09T03:51:47;6.97;;;3.83;;
51614;SDS011;37695;52.960;6.188;2022-09-09T03:54:13;8.23;;;4.20;;
51614;SDS011;37695;52.960;6.188;2022-09-09T03:56:38;4.90;;;3.72;;
51614;SDS011;37695;52.960;6.188;2022-09-09T03:59:06;7.45;;;4.18;;
51614;SDS011;37695;52.960;6.188;2022-09-09T04:01:33;6.82;;;4.60;;
51614;SDS011;37695;52.960;6.188;2022-09-09T04:03:59;7.10;;;4.22;;
51614;SDS011;37695;52.960;6.188;2022-09-09T04:06:27;6.47;;;3.80;;
51614;SDS011;37695;52.960;6.188;2022-09-09T04:08:52;5.60;;;3.72;;
51614;SDS011;37695;52.960;6.188;2022-09-09T04:11:18;5.93;;;4.15;;
51614;SDS011;37695;52.960;6.188;2022-09-09T04:13:44;5.10;;;3.53;;
51614;SDS011;37695;52.960;6.188;2022-09-09T04:16:10;5.85;;;3.83;;
51614;SDS011;37695;52.960;6.188;2022-09-09T04:18:38;7.07;;;4.05;;
51614;SDS011;37695;52.960;6.188;2022-09-09T04:21:04;5.20;;;3.83;;
51614;SDS011;37695;52.960;6.188;2022-09-09T04:23:31;5.22;;;3.75;;
51614;SDS011;37695;52.960;6.188;2022-09-09T04:25:59;6.07;;;4.03;;
51614;SDS011;37695;52.960;6.188;2022-09-09T04:28:27;6.18;;;4.00;;
51614;SDS011;37695;52.960;6.188;2022-09-09T04:30:54;5.65;;;3.67;;
51614;SDS011;37695;52.960;6.188;2022-09-09T04:33:23;5.63;;;4.30;;
51614;SDS011;37695;52.960;6.188;2022-09-09T04:35:51;5.70;;;3.92;;
51614;SDS011;37695;52.960;6.188;2022-09-09T04:38:18;5.93;;;4.10;;
51614;SDS011;37695;52.960;6.188;2022-09-09T04:40:47;6.13;;;3.90;;
51614;SDS011;37695;52.960;6.188;2022-09-09T04:43:14;6.32;;;3.80;;
51614;SDS011;37695;52.960;6.188;2022-09-09T04:45:40;6.60;;;4.07;;
51614;SDS011;37695;52.960;6.188;2022-09-09T04:48:07;5.43;;;3.75;;
51614;SDS011;37695;52.960;6.188;2022-09-09T04:50:33;5.53;;;4.18;;
51614;SDS011;37695;52.960;6.188;2022-09-09T04:53:07;5.60;;;4.18;;
51614;SDS011;37695;52.960;6.188;2022-09-09T04:55:33;6.97;;;3.88;;
51614;SDS011;37695;52.960;6.188;2022-09-09T04:58:06;5.60;;;4.13;;
51614;SDS011;37695;52.960;6.188;2022-09-09T05:00:33;5.68;;;3.90;;
51614;SDS011;37695;52.960;6.188;2022-09-09T05:03:06;5.85;;;4.55;;
51614;SDS011;37695;52.960;6.188;2022-09-09T05:05:33;6.93;;;4.25;;
51614;SDS011;37695;52.960;6.188;2022-09-09T05:08:03;8.18;;;4.55;;
51614;SDS011;37695;52.960;6.188;2022-09-09T05:10:31;5.53;;;4.32;;
51614;SDS011;37695;52.960;6.188;2022-09-09T05:12:58;5.70;;;4.40;;
51614;SDS011;37695;52.960;6.188;2022-09-09T05:15:24;6.38;;;4.65;;
51614;SDS011;37695;52.960;6.188;2022-09-09T05:17:49;6.95;;;4.50;;
51614;SDS011;37695;52.960;6.188;2022-09-09T05:20:17;6.93;;;4.45;;
51614;SDS011;37695;52.960;6.188;2022-09-09T05:22:43;6.20;;;4.35;;
51614;SDS011;37695;52.960;6.188;2022-09-09T05:25:08;7.07;;;4.57;;
51614;SDS011;37695;52.960;6.188;2022-09-09T05:27:34;7.43;;;4.82;;
51614;SDS011;37695;52.960;6.188;2022-09-09T05:30:00;6.22;;;4.43;;
51614;SDS011;37695;52.960;6.188;2022-09-09T05:32:25;6.47;;;4.68;;
51614;SDS011;37695;52.960;6.188;2022-09-09T05:34:51;8.77;;;5.10;;
51614;SDS011;37695;52.960;6.188;2022-09-09T05:37:17;5.80;;;4.88;;
51614;SDS011;37695;52.960;6.188;2022-09-09T05:39:43;6.88;;;5.10;;
51614;SDS011;37695;52.960;6.188;2022-09-09T05:42:09;7.45;;;5.20;;
51614;SDS011;37695;52.960;6.188;2022-09-09T05:44:35;9.40;;;5.43;;
51614;SDS011;37695;52.960;6.188;2022-09-09T05:47:00;7.47;;;5.18;;
51614;SDS011;37695;52.960;6.188;2022-09-09T05:49:26;6.88;;;5.40;;
51614;SDS011;37695;52.960;6.188;2022-09-09T05:51:51;8.63;;;5.35;;
51614;SDS011;37695;52.960;6.188;2022-09-09T05:54:17;7.03;;;5.25;;
51614;SDS011;37695;52.960;6.188;2022-09-09T05:56:43;7.70;;;5.55;;
51614;SDS011;37695;52.960;6.188;2022-09-09T05:59:09;6.55;;;5.32;;
51614;SDS011;37695;52.960;6.188;2022-09-09T06:01:36;6.88;;;5.65;;
51614;SDS011;37695;52.960;6.188;2022-09-09T06:04:05;6.40;;;5.15;;
51614;SDS011;37695;52.960;6.188;2022-09-09T06:06:33;8.45;;;5.05;;
51614;SDS011;37695;52.960;6.188;2022-09-09T06:09:05;6.30;;;4.53;;
51614;SDS011;37695;52.960;6.188;2022-09-09T06:11:34;6.45;;;5.00;;
51614;SDS011;37695;52.960;6.188;2022-09-09T06:14:01;6.10;;;4.95;;
51614;SDS011;37695;52.960;6.188;2022-09-09T06:16:28;6.25;;;4.43;;
51614;SDS011;37695;52.960;6.188;2022-09-09T06:18:55;6.10;;;4.78;;
51614;SDS011;37695;52.960;6.188;2022-09-09T06:21:30;6.15;;;4.80;;
51614;SDS011;37695;52.960;6.188;2022-09-09T06:23:57;6.03;;;4.53;;
51614;SDS011;37695;52.960;6.188;2022-09-09T06:26:24;6.20;;;4.45;;
51614;SDS011;37695;52.960;6.188;2022-09-09T06:29:02;5.78;;;4.28;;
51614;SDS011;37695;52.960;6.188;2022-09-09T06:31:29;6.78;;;4.68;;
51614;SDS011;37695;52.960;6.188;2022-09-09T06:33:56;5.82;;;4.55;;
51614;SDS011;37695;52.960;6.188;2022-09-09T06:36:26;6.57;;;4.28;;
51614;SDS011;37695;52.960;6.188;2022-09-09T06:38:59;6.55;;;4.32;;
51614;SDS011;37695;52.960;6.188;2022-09-09T06:41:26;5.75;;;4.28;;
51614;SDS011;37695;52.960;6.188;2022-09-09T06:43:53;6.47;;;4.32;;
51614;SDS011;37695;52.960;6.188;2022-09-09T06:46:19;5.80;;;4.20;;
51614;SDS011;37695;52.960;6.188;2022-09-09T06:48:52;8.70;;;4.00;;
51614;SDS011;37695;52.960;6.188;2022-09-09T06:51:20;5.90;;;4.25;;
51614;SDS011;37695;52.960;6.188;2022-09-09T06:53:49;6.45;;;4.22;;
51614;SDS011;37695;52.960;6.188;2022-09-09T06:56:29;5.32;;;4.10;;
51614;SDS011;37695;52.960;6.188;2022-09-09T06:58:57;5.68;;;3.72;;
51614;SDS011;37695;52.960;6.188;2022-09-09T07:01:26;5.40;;;3.60;;
51614;SDS011;37695;52.960;6.188;2022-09-09T07:03:54;6.05;;;3.55;;
51614;SDS011;37695;52.960;6.188;2022-09-09T07:06:25;6.25;;;3.67;;
51614;SDS011;37695;52.960;6.188;2022-09-09T07:08:53;5.90;;;3.92;;
51614;SDS011;37695;52.960;6.188;2022-09-09T07:11:20;6.25;;;3.95;;
51614;SDS011;37695;52.960;6.188;2022-09-09T07:13:47;6.30;;;4.28;;
51614;SDS011;37695;52.960;6.188;2022-09-09T07:16:17;5.22;;;3.45;;
51614;SDS011;37695;52.960;6.188;2022-09-09T07:18:44;6.75;;;3.47;;
51614;SDS011;37695;52.960;6.188;2022-09-09T07:21:10;5.00;;;3.70;;
51614;SDS011;37695;52.960;6.188;2022-09-09T07:23:40;4.72;;;3.70;;
51614;SDS011;37695;52.960;6.188;2022-09-09T07:28:39;5.47;;;3.85;;
51614;SDS011;37695;52.960;6.188;2022-09-09T07:31:05;5.50;;;3.35;;
51614;SDS011;37695;52.960;6.188;2022-09-09T07:33:32;5.97;;;3.50;;
51614;SDS011;37695;52.960;6.188;2022-09-09T07:36:03;7.53;;;3.92;;
51614;SDS011;37695;52.960;6.188;2022-09-09T07:38:32;4.97;;;3.70;;
51614;SDS011;37695;52.960;6.188;2022-09-09T07:41:03;5.65;;;3.75;;
51614;SDS011;37695;52.960;6.188;2022-09-09T07:43:30;5.75;;;4.05;;
51614;SDS011;37695;52.960;6.188;2022-09-09T07:45:59;6.47;;;3.90;;
51614;SDS011;37695;52.960;6.188;2022-09-09T07:48:26;7.43;;;4.07;;
51614;SDS011;37695;52.960;6.188;2022-09-09T07:50:52;6.93;;;4.07;;
51614;SDS011;37695;52.960;6.188;2022-09-09T07:55:52;5.43;;;3.22;;
51614;SDS011;37695;52.960;6.188;2022-09-09T07:58:18;6.47;;;3.83;;
51614;SDS011;37695;52.960;6.188;2022-09-09T08:00:44;5.88;;;3.72;;
51614;SDS011;37695;52.960;6.188;2022-09-09T08:03:09;5.68;;;3.72;;
51614;SDS011;37695;52.960;6.188;2022-09-09T08:05:35;6.43;;;3.90;;
51614;SDS011;37695;52.960;6.188;2022-09-09T08:08:01;6.28;;;3.75;;
51614;SDS011;37695;52.960;6.188;2022-09-09T08:10:28;5.18;;;3.55;;
51614;SDS011;37695;52.960;6.188;2022-09-09T08:12:54;5.65;;;3.65;;
51614;SDS011;37695;52.960;6.188;2022-09-09T08:15:20;5.85;;;3.45;;
51614;SDS011;37695;52.960;6.188;2022-09-09T08:17:45;6.57;;;3.65;;
51614;SDS011;37695;52.960;6.188;2022-09-09T08:20:11;7.63;;;3.65;;
51614;SDS011;37695;52.960;6.188;2022-09-09T08:22:36;6.05;;;3.60;;
51614;SDS011;37695;52.960;6.188;2022-09-09T08:25:02;5.63;;;3.50;;
51614;SDS011;37695;52.960;6.188;2022-09-09T08:27:31;7.95;;;3.58;;
51614;SDS011;37695;52.960;6.188;2022-09-09T08:29:57;8.50;;;3.58;;
51614;SDS011;37695;52.960;6.188;2022-09-09T08:32:23;8.30;;;3.33;;
51614;SDS011;37695;52.960;6.188;2022-09-09T08:34:49;6.55;;;3.38;;
51614;SDS011;37695;52.960;6.188;2022-09-09T08:37:16;8.55;;;3.22;;
51614;SDS011;37695;52.960;6.188;2022-09-09T08:39:41;6.15;;;3.30;;
51614;SDS011;37695;52.960;6.188;2022-09-09T08:50:27;8.57;;;3.00;;
51614;SDS011;37695;52.960;6.188;2022-09-09T08:53:05;6.95;;;2.78;;
51614;SDS011;37695;52.960;6.188;2022-09-09T08:55:46;6.07;;;3.22;;
51614;SDS011;37695;52.960;6.188;2022-09-09T08:58:16;5.70;;;2.63;;
51614;SDS011;37695;52.960;6.188;2022-09-09T09:03:28;5.88;;;2.70;;
51614;SDS011;37695;52.960;6.188;2022-09-09T09:06:10;8.02;;;2.78;;
51614;SDS011;37695;52.960;6.188;2022-09-09T09:11:26;7.65;;;2.80;;
51614;SDS011;37695;52.960;6.188;2022-09-09T09:19:32;7.22;;;2.90;;
51614;SDS011;37695;52.960;6.188;2022-09-09T09:22:04;7.63;;;2.90;;
51614;SDS011;37695;52.960;6.188;2022-09-09T09:27:40;9.75;;;3.08;;
51614;SDS011;37695;52.960;6.188;2022-09-09T09:30:38;7.78;;;3.00;;
51614;SDS011;37695;52.960;6.188;2022-09-09T09:35:54;6.47;;;2.60;;
51614;SDS011;37695;52.960;6.188;2022-09-09T09:38:23;9.73;;;2.65;;
51614;SDS011;37695;52.960;6.188;2022-09-09T09:40:51;5.47;;;2.45;;
51614;SDS011;37695;52.960;6.188;2022-09-09T09:43:29;6.68;;;2.20;;
51614;SDS011;37695;52.960;6.188;2022-09-09T09:45:57;5.53;;;2.28;;
51614;SDS011;37695;52.960;6.188;2022-09-09T09:48:23;4.65;;;2.17;;
51614;SDS011;37695;52.960;6.188;2022-09-09T09:50:51;7.35;;;2.15;;
51614;SDS011;37695;52.960;6.188;2022-09-09T09:53:21;5.60;;;2.13;;
51614;SDS011;37695;52.960;6.188;2022-09-09T10:01:28;4.10;;;1.90;;
51614;SDS011;37695;52.960;6.188;2022-09-09T10:04:20;7.05;;;2.42;;
51614;SDS011;37695;52.960;6.188;2022-09-09T10:06:46;6.53;;;2.17;;
51614;SDS011;37695;52.960;6.188;2022-09-09T10:09:28;5.10;;;2.33;;
51614;SDS011;37695;52.960;6.188;2022-09-09T10:12:06;5.97;;;2.00;;
51614;SDS011;37695;52.960;6.188;2022-09-09T10:17:49;4.25;;;1.63;;
51614;SDS011;37695;52.960;6.188;2022-09-09T10:20:29;8.35;;;2.20;;
51614;SDS011;37695;52.960;6.188;2022-09-09T10:23:13;4.47;;;1.55;;
51614;SDS011;37695;52.960;6.188;2022-09-09T10:36:57;7.10;;;2.00;;
51614;SDS011;37695;52.960;6.188;2022-09-09T10:39:29;2.72;;;1.50;;
51614;SDS011;37695;52.960;6.188;2022-09-09T10:42:01;4.25;;;1.60;;
51614;SDS011;37695;52.960;6.188;2022-09-09T10:44:42;7.75;;;2.00;;
51614;SDS011;37695;52.960;6.188;2022-09-09T10:47:22;7.63;;;1.80;;
51614;SDS011;37695;52.960;6.188;2022-09-09T10:50:06;4.95;;;1.75;;
51614;SDS011;37695;52.960;6.188;2022-09-09T10:55:19;5.93;;;1.80;;
51614;SDS011;37695;52.960;6.188;2022-09-09T10:57:51;7.75;;;1.58;;
51614;SDS011;37695;52.960;6.188;2022-09-09T11:00:19;7.25;;;1.73;;
51614;SDS011;37695;52.960;6.188;2022-09-09T11:02:53;5.60;;;2.10;;
51614;SDS011;37695;52.960;6.188;2022-09-09T11:05:43;5.78;;;1.83;;
51614;SDS011;37695;52.960;6.188;2022-09-09T11:08:21;5.53;;;1.55;;
51614;SDS011;37695;52.960;6.188;2022-09-09T11:13:39;4.05;;;1.77;;
51614;SDS011;37695;52.960;6.188;2022-09-09T11:16:22;5.95;;;1.63;;
51614;SDS011;37695;52.960;6.188;2022-09-09T11:19:00;10.57;;;2.13;;
51614;SDS011;37695;52.960;6.188;2022-09-09T11:21:34;4.82;;;2.05;;
51614;SDS011;37695;52.960;6.188;2022-09-09T11:24:09;4.35;;;1.67;;
51614;SDS011;37695;52.960;6.188;2022-09-09T11:26:41;5.40;;;1.52;;
51614;SDS011;37695;52.960;6.188;2022-09-09T11:37:17;4.78;;;1.27;;
51614;SDS011;37695;52.960;6.188;2022-09-09T11:42:42;4.38;;;1.50;;
51614;SDS011;37695;52.960;6.188;2022-09-09T11:45:08;4.35;;;1.67;;
51614;SDS011;37695;52.960;6.188;2022-09-09T11:47:36;4.38;;;1.30;;
51614;SDS011;37695;52.960;6.188;2022-09-09T11:52:43;6.03;;;1.90;;
51614;SDS011;37695;52.960;6.188;2022-09-09T11:55:28;4.65;;;1.65;;
51614;SDS011;37695;52.960;6.188;2022-09-09T11:57:58;6.22;;;1.70;;
51614;SDS011;37695;52.960;6.188;2022-09-09T12:00:43;5.53;;;1.85;;
51614;SDS011;37695;52.960;6.188;2022-09-09T12:05:58;4.20;;;1.58;;
51614;SDS011;37695;52.960;6.188;2022-09-09T12:08:28;7.85;;;2.03;;
51614;SDS011;37695;52.960;6.188;2022-09-09T12:10:55;5.45;;;1.83;;
51614;SDS011;37695;52.960;6.188;2022-09-09T12:13:24;6.45;;;1.88;;
51614;SDS011;37695;52.960;6.188;2022-09-09T12:18:31;6.10;;;1.88;;
51614;SDS011;37695;52.960;6.188;2022-09-09T12:21:00;5.70;;;1.65;;
51614;SDS011;37695;52.960;6.188;2022-09-09T12:23:30;5.22;;;1.40;;
51614;SDS011;37695;52.960;6.188;2022-09-09T12:28:49;5.72;;;1.83;;
51614;SDS011;37695;52.960;6.188;2022-09-09T12:32:14;4.82;;;1.52;;
51614;SDS011;37695;52.960;6.188;2022-09-09T12:40:04;4.75;;;1.58;;
51614;SDS011;37695;52.960;6.188;2022-09-09T12:42:42;6.88;;;1.50;;
51614;SDS011;37695;52.960;6.188;2022-09-09T12:45:21;3.63;;;1.20;;
51614;SDS011;37695;52.960;6.188;2022-09-09T12:48:10;3.90;;;1.50;;
51614;SDS011;37695;52.960;6.188;2022-09-09T12:50:37;6.45;;;1.60;;
51614;SDS011;37695;52.960;6.188;2022-09-09T12:53:11;4.78;;;1.52;;
51614;SDS011;37695;52.960;6.188;2022-09-09T12:55:51;3.67;;;1.63;;
51614;SDS011;37695;52.960;6.188;2022-09-09T12:58:30;3.72;;;1.63;;
51614;SDS011;37695;52.960;6.188;2022-09-09T13:00:59;5.50;;;1.77;;
51614;SDS011;37695;52.960;6.188;2022-09-09T13:03:30;6.53;;;2.00;;
51614;SDS011;37695;52.960;6.188;2022-09-09T13:06:12;6.90;;;1.60;;
51614;SDS011;37695;52.960;6.188;2022-09-09T13:08:44;4.68;;;1.60;;
51614;SDS011;37695;52.960;6.188;2022-09-09T13:11:11;4.88;;;1.52;;
51614;SDS011;37695;52.960;6.188;2022-09-09T13:13:43;3.58;;;1.70;;
51614;SDS011;37695;52.960;6.188;2022-09-09T13:16:34;4.93;;;1.70;;
51614;SDS011;37695;52.960;6.188;2022-09-09T13:21:32;2.78;;;1.30;;
51614;SDS011;37695;52.960;6.188;2022-09-09T13:23:59;4.28;;;1.30;;
51614;SDS011;37695;52.960;6.188;2022-09-09T13:26:28;7.38;;;1.60;;
51614;SDS011;37695;52.960;6.188;2022-09-09T13:28:55;8.63;;;1.70;;
51614;SDS011;37695;52.960;6.188;2022-09-09T13:31:33;3.25;;;1.38;;
51614;SDS011;37695;52.960;6.188;2022-09-09T13:34:22;4.95;;;1.50;;
51614;SDS011;37695;52.960;6.188;2022-09-09T13:36:53;3.33;;;1.20;;
51614;SDS011;37695;52.960;6.188;2022-09-09T13:39:27;2.38;;;1.00;;
51614;SDS011;37695;52.960;6.188;2022-09-09T13:41:53;2.45;;;0.80;;
51614;SDS011;37695;52.960;6.188;2022-09-09T13:44:26;4.20;;;1.42;;
51614;SDS011;37695;52.960;6.188;2022-09-09T13:47:01;4.38;;;1.20;;
51614;SDS011;37695;52.960;6.188;2022-09-09T13:49:48;2.97;;;1.02;;
51614;SDS011;37695;52.960;6.188;2022-09-09T13:52:14;4.72;;;1.60;;
51614;SDS011;37695;52.960;6.188;2022-09-09T13:54:42;4.55;;;1.60;;
51614;SDS011;37695;52.960;6.188;2022-09-09T13:57:26;4.28;;;1.10;;
51614;SDS011;37695;52.960;6.188;2022-09-09T13:59:52;3.65;;;1.30;;
51614;SDS011;37695;52.960;6.188;2022-09-09T14:02:20;1.55;;;1.00;;
51614;SDS011;37695;52.960;6.188;2022-09-09T14:04:47;3.50;;;1.10;;
51614;SDS011;37695;52.960;6.188;2022-09-09T14:07:16;2.83;;;1.10;;
51614;SDS011;37695;52.960;6.188;2022-09-09T14:09:43;2.15;;;1.10;;
51614;SDS011;37695;52.960;6.188;2022-09-09T14:12:09;3.40;;;1.30;;
51614;SDS011;37695;52.960;6.188;2022-09-09T14:14:36;3.88;;;1.40;;
51614;SDS011;37695;52.960;6.188;2022-09-09T14:17:02;3.00;;;1.30;;
51614;SDS011;37695;52.960;6.188;2022-09-09T14:19:28;3.08;;;1.38;;
51614;SDS011;37695;52.960;6.188;2022-09-09T14:21:55;3.15;;;1.10;;
51614;SDS011;37695;52.960;6.188;2022-09-09T14:24:20;4.53;;;1.40;;
51614;SDS011;37695;52.960;6.188;2022-09-09T14:26:46;3.95;;;1.20;;
51614;SDS011;37695;52.960;6.188;2022-09-09T14:29:12;3.45;;;1.20;;
51614;SDS011;37695;52.960;6.188;2022-09-09T14:31:37;4.57;;;1.40;;
51614;SDS011;37695;52.960;6.188;2022-09-09T14:34:03;4.93;;;1.52;;
51614;SDS011;37695;52.960;6.188;2022-09-09T14:36:28;4.15;;;1.20;;
51614;SDS011;37695;52.960;6.188;2022-09-09T14:38:55;4.72;;;1.25;;
51614;SDS011;37695;52.960;6.188;2022-09-09T14:41:20;3.78;;;1.20;;
51614;SDS011;37695;52.960;6.188;2022-09-09T14:43:47;3.58;;;1.40;;
51614;SDS011;37695;52.960;6.188;2022-09-09T14:46:14;2.83;;;1.10;;
51614;SDS011;37695;52.960;6.188;2022-09-09T14:48:41;4.40;;;1.05;;
51614;SDS011;37695;52.960;6.188;2022-09-09T14:51:07;2.92;;;1.10;;
51614;SDS011;37695;52.960;6.188;2022-09-09T14:53:34;3.70;;;1.20;;
51614;SDS011;37695;52.960;6.188;2022-09-09T14:56:11;6.45;;;1.33;;
51614;SDS011;37695;52.960;6.188;2022-09-09T14:58:47;2.03;;;0.93;;
51614;SDS011;37695;52.960;6.188;2022-09-09T15:01:17;3.25;;;1.52;;
51614;SDS011;37695;52.960;6.188;2022-09-09T15:03:52;3.42;;;1.20;;
51614;SDS011;37695;52.960;6.188;2022-09-09T15:06:20;4.05;;;1.30;;
51614;SDS011;37695;52.960;6.188;2022-09-09T15:08:47;2.78;;;1.02;;
51614;SDS011;37695;52.960;6.188;2022-09-09T15:11:13;2.33;;;1.15;;
51614;SDS011;37695;52.960;6.188;2022-09-09T15:13:39;5.03;;;1.40;;
51614;SDS011;37695;52.960;6.188;2022-09-09T15:16:08;3.45;;;1.63;;
51614;SDS011;37695;52.960;6.188;2022-09-09T15:18:37;4.13;;;1.50;;
51614;SDS011;37695;52.960;6.188;2022-09-09T15:21:08;3.65;;;1.35;;
51614;SDS011;37695;52.960;6.188;2022-09-09T15:23:35;3.38;;;1.23;;
51614;SDS011;37695;52.960;6.188;2022-09-09T15:26:01;3.25;;;1.27;;
51614;SDS011;37695;52.960;6.188;2022-09-09T15:28:27;4.22;;;1.33;;
51614;SDS011;37695;52.960;6.188;2022-09-09T15:30:53;2.92;;;1.33;;
51614;SDS011;37695;52.960;6.188;2022-09-09T15:33:19;5.47;;;1.60;;
51614;SDS011;37695;52.960;6.188;2022-09-09T15:35:46;3.90;;;1.42;;
51614;SDS011;37695;52.960;6.188;2022-09-09T15:38:12;2.72;;;1.30;;
51614;SDS011;37695;52.960;6.188;2022-09-09T15:40:38;3.35;;;1.50;;
51614;SDS011;37695;52.960;6.188;2022-09-09T15:43:05;3.55;;;1.40;;
51614;SDS011;37695;52.960;6.188;2022-09-09T15:45:31;6.47;;;1.65;;
51614;SDS011;37695;52.960;6.188;2022-09-09T15:47:58;5.13;;;1.70;;
51614;SDS011;37695;52.960;6.188;2022-09-09T15:50:25;5.20;;;1.70;;
51614;SDS011;37695;52.960;6.188;2022-09-09T15:52:51;4.40;;;1.67;;
51614;SDS011;37695;52.960;6.188;2022-09-09T15:55:18;6.00;;;1.45;;
51614;SDS011;37695;52.960;6.188;2022-09-09T15:57:45;11.13;;;1.90;;
51614;SDS011;37695;52.960;6.188;2022-09-09T16:00:11;4.57;;;1.73;;
51614;SDS011;37695;52.960;6.188;2022-09-09T16:02:38;3.38;;;1.40;;
51614;SDS011;37695;52.960;6.188;2022-09-09T16:05:04;5.28;;;2.03;;
51614;SDS011;37695;52.960;6.188;2022-09-09T16:07:30;3.85;;;1.50;;
51614;SDS011;37695;52.960;6.188;2022-09-09T16:09:55;5.22;;;1.55;;
51614;SDS011;37695;52.960;6.188;2022-09-09T16:12:21;5.00;;;1.33;;
51614;SDS011;37695;52.960;6.188;2022-09-09T16:14:46;3.03;;;1.30;;
51614;SDS011;37695;52.960;6.188;2022-09-09T16:17:12;4.30;;;1.20;;
51614;SDS011;37695;52.960;6.188;2022-09-09T16:19:39;3.30;;;1.10;;
51614;SDS011;37695;52.960;6.188;2022-09-09T16:22:04;3.60;;;1.38;;
51614;SDS011;37695;52.960;6.188;2022-09-09T16:24:31;2.65;;;1.42;;
51614;SDS011;37695;52.960;6.188;2022-09-09T16:26:57;3.40;;;1.13;;
51614;SDS011;37695;52.960;6.188;2022-09-09T16:29:22;3.95;;;1.40;;
51614;SDS011;37695;52.960;6.188;2022-09-09T16:31:49;3.95;;;1.60;;
51614;SDS011;37695;52.960;6.188;2022-09-09T16:34:15;4.43;;;1.45;;
51614;SDS011;37695;52.960;6.188;2022-09-09T16:36:43;4.82;;;1.38;;
51614;SDS011;37695;52.960;6.188;2022-09-09T16:39:10;2.65;;;1.20;;
51614;SDS011;37695;52.960;6.188;2022-09-09T16:41:37;3.20;;;1.40;;
51614;SDS011;37695;52.960;6.188;2022-09-09T16:44:05;3.88;;;1.30;;
51614;SDS011;37695;52.960;6.188;2022-09-09T16:46:36;2.28;;;1.30;;
51614;SDS011;37695;52.960;6.188;2022-09-09T16:49:04;2.70;;;1.33;;
51614;SDS011;37695;52.960;6.188;2022-09-09T16:51:32;3.58;;;1.58;;
51614;SDS011;37695;52.960;6.188;2022-09-09T16:54:00;3.25;;;1.48;;
51614;SDS011;37695;52.960;6.188;2022-09-09T16:56:29;3.30;;;1.33;;
51614;SDS011;37695;52.960;6.188;2022-09-09T16:58:58;6.45;;;1.60;;
51614;SDS011;37695;52.960;6.188;2022-09-09T17:01:27;2.88;;;1.42;;
51614;SDS011;37695;52.960;6.188;2022-09-09T17:03:54;2.30;;;1.27;;
51614;SDS011;37695;52.960;6.188;2022-09-09T17:06:25;4.68;;;1.52;;
51614;SDS011;37695;52.960;6.188;2022-09-09T17:08:55;4.45;;;1.65;;
51614;SDS011;37695;52.960;6.188;2022-09-09T17:11:22;4.53;;;1.63;;
51614;SDS011;37695;52.960;6.188;2022-09-09T17:13:48;3.58;;;1.67;;
51614;SDS011;37695;52.960;6.188;2022-09-09T17:16:16;4.20;;;1.90;;
51614;SDS011;37695;52.960;6.188;2022-09-09T17:18:43;4.97;;;1.75;;
51614;SDS011;37695;52.960;6.188;2022-09-09T17:21:14;6.10;;;1.90;;